sensor_id;sensor_type;location;lat;lon;timestamp;pressure;altitude;pressure_sealevel;temperature;humidity
57000;BME280;42891;50.006;21.964;2022-10-18T00:03:46;100152.69;;;14.54;68.49
57000;BME280;42891;50.006;21.964;2022-10-18T00:07:46;100155.00;;;14.37;68.95
57000;BME280;42891;50.006;21.964;2022-10-18T00:11:46;100151.38;;;14.38;68.74
57000;BME280;42891;50.006;21.964;2022-10-18T00:15:56;100137.31;;;14.26;69.42
57000;BME280;42891;50.006;21.964;2022-10-18T00:19:56;100133.84;;;14.26;69.01
57000;BME280;42891;50.006;21.964;2022-10-18T00:23:56;100127.22;;;14.20;69.28
57000;BME280;42891;50.006;21.964;2022-10-18T00:27:57;100124.88;;;14.27;69.36
57000;BME280;42891;50.006;21.964;2022-10-18T00:31:57;100132.84;;;14.27;69.43
57000;BME280;42891;50.006;21.964;2022-10-18T00:35:59;100133.25;;;14.22;69.58
57000;BME280;42891;50.006;21.964;2022-10-18T00:40:00;100108.13;;;14.05;69.77
57000;BME280;42891;50.006;21.964;2022-10-18T00:48:02;100109.03;;;13.94;70.47
57000;BME280;42891;50.006;21.964;2022-10-18T00:52:28;100116.69;;;13.88;70.64
57000;BME280;42891;50.006;21.964;2022-10-18T00:56:26;100101.41;;;14.01;70.14
57000;BME280;42891;50.006;21.964;2022-10-18T01:00:27;100109.16;;;14.14;69.89
57000;BME280;42891;50.006;21.964;2022-10-18T01:04:28;100100.16;;;14.05;69.44
57000;BME280;42891;50.006;21.964;2022-10-18T01:08:43;100106.53;;;13.93;70.13
57000;BME280;42891;50.006;21.964;2022-10-18T01:17:17;100085.63;;;13.78;70.28
57000;BME280;42891;50.006;21.964;2022-10-18T01:21:29;100098.41;;;13.94;70.28
57000;BME280;42891;50.006;21.964;2022-10-18T01:34:05;100069.75;;;13.67;71.06
57000;BME280;42891;50.006;21.964;2022-10-18T01:38:10;100071.00;;;13.84;70.47
57000;BME280;42891;50.006;21.964;2022-10-18T01:42:16;100069.69;;;13.78;70.65
57000;BME280;42891;50.006;21.964;2022-10-18T01:46:21;100046.03;;;13.75;70.78
57000;BME280;42891;50.006;21.964;2022-10-18T01:50:30;100074.25;;;13.97;70.90
57000;BME280;42891;50.006;21.964;2022-10-18T01:54:36;100068.25;;;13.95;70.04
57000;BME280;42891;50.006;21.964;2022-10-18T01:58:43;100053.78;;;13.78;70.16
57000;BME280;42891;50.006;21.964;2022-10-18T02:03:23;100056.03;;;13.83;69.83
57000;BME280;42891;50.006;21.964;2022-10-18T02:07:27;100062.03;;;13.85;70.23
57000;BME280;42891;50.006;21.964;2022-10-18T02:11:30;100061.19;;;13.85;70.29
57000;BME280;42891;50.006;21.964;2022-10-18T02:15:38;100055.88;;;13.85;70.36
57000;BME280;42891;50.006;21.964;2022-10-18T02:19:47;100044.19;;;13.66;70.57
57000;BME280;42891;50.006;21.964;2022-10-18T02:23:49;100056.47;;;13.67;70.73
57000;BME280;42891;50.006;21.964;2022-10-18T02:27:50;100046.84;;;13.66;70.92
57000;BME280;42891;50.006;21.964;2022-10-18T02:31:58;100043.94;;;13.69;71.04
57000;BME280;42891;50.006;21.964;2022-10-18T02:36:05;100019.72;;;13.62;70.93
57000;BME280;42891;50.006;21.964;2022-10-18T02:40:09;100042.03;;;13.60;71.51
57000;BME280;42891;50.006;21.964;2022-10-18T02:44:09;100040.63;;;13.56;71.61
57000;BME280;42891;50.006;21.964;2022-10-18T02:48:10;100044.97;;;13.57;71.55
57000;BME280;42891;50.006;21.964;2022-10-18T02:52:10;100028.66;;;13.40;71.97
57000;BME280;42891;50.006;21.964;2022-10-18T02:56:11;100038.66;;;13.37;72.13
57000;BME280;42891;50.006;21.964;2022-10-18T03:00:11;100043.00;;;13.38;72.49
57000;BME280;42891;50.006;21.964;2022-10-18T03:04:12;100039.59;;;13.47;72.24
57000;BME280;42891;50.006;21.964;2022-10-18T03:08:12;100041.09;;;13.40;72.25
57000;BME280;42891;50.006;21.964;2022-10-18T03:12:12;100030.88;;;13.56;71.54
57000;BME280;42891;50.006;21.964;2022-10-18T03:16:13;100019.00;;;13.39;72.26
57000;BME280;42891;50.006;21.964;2022-10-18T03:20:13;100034.09;;;13.60;71.69
57000;BME280;42891;50.006;21.964;2022-10-18T03:24:13;100039.97;;;13.63;71.64
57000;BME280;42891;50.006;21.964;2022-10-18T03:28:14;100027.03;;;13.70;71.01
57000;BME280;42891;50.006;21.964;2022-10-18T03:32:14;100034.91;;;13.81;70.71
57000;BME280;42891;50.006;21.964;2022-10-18T03:36:14;100023.34;;;13.83;70.82
57000;BME280;42891;50.006;21.964;2022-10-18T03:40:14;100032.31;;;13.91;70.61
57000;BME280;42891;50.006;21.964;2022-10-18T03:44:15;100027.38;;;13.87;69.96
57000;BME280;42891;50.006;21.964;2022-10-18T03:48:15;100053.09;;;13.86;70.73
57000;BME280;42891;50.006;21.964;2022-10-18T03:52:15;100030.75;;;13.89;70.75
57000;BME280;42891;50.006;21.964;2022-10-18T03:56:16;100043.38;;;13.96;71.04
57000;BME280;42891;50.006;21.964;2022-10-18T04:00:16;100025.31;;;13.90;70.92
57000;BME280;42891;50.006;21.964;2022-10-18T04:04:16;100030.50;;;13.92;71.06
57000;BME280;42891;50.006;21.964;2022-10-18T04:08:17;100044.50;;;13.94;70.51
57000;BME280;42891;50.006;21.964;2022-10-18T04:12:17;100038.84;;;13.87;70.71
57000;BME280;42891;50.006;21.964;2022-10-18T04:16:18;100045.72;;;13.90;70.78
57000;BME280;42891;50.006;21.964;2022-10-18T04:20:18;100041.59;;;13.76;71.04
57000;BME280;42891;50.006;21.964;2022-10-18T04:24:18;100039.78;;;13.76;70.69
57000;BME280;42891;50.006;21.964;2022-10-18T04:28:19;100040.31;;;13.70;70.96
57000;BME280;42891;50.006;21.964;2022-10-18T04:32:19;100048.84;;;13.74;70.94
57000;BME280;42891;50.006;21.964;2022-10-18T04:36:19;100029.50;;;13.62;71.40
57000;BME280;42891;50.006;21.964;2022-10-18T04:40:20;100035.03;;;13.59;71.04
57000;BME280;42891;50.006;21.964;2022-10-18T04:44:20;100050.34;;;13.45;71.69
57000;BME280;42891;50.006;21.964;2022-10-18T04:48:21;100049.75;;;13.63;71.31
57000;BME280;42891;50.006;21.964;2022-10-18T04:52:21;100034.16;;;13.49;71.50
57000;BME280;42891;50.006;21.964;2022-10-18T04:56:21;100040.25;;;13.60;71.05
57000;BME280;42891;50.006;21.964;2022-10-18T05:00:22;100035.84;;;13.50;71.54
57000;BME280;42891;50.006;21.964;2022-10-18T05:04:22;100041.34;;;13.58;71.51
57000;BME280;42891;50.006;21.964;2022-10-18T05:08:22;100042.78;;;13.62;71.68
57000;BME280;42891;50.006;21.964;2022-10-18T05:12:23;100048.78;;;13.64;71.62
57000;BME280;42891;50.006;21.964;2022-10-18T05:16:23;100044.19;;;13.66;71.44
57000;BME280;42891;50.006;21.964;2022-10-18T05:20:23;100048.13;;;13.72;71.12
57000;BME280;42891;50.006;21.964;2022-10-18T05:24:23;100048.28;;;13.70;70.81
57000;BME280;42891;50.006;21.964;2022-10-18T05:28:24;100037.75;;;13.69;70.97
57000;BME280;42891;50.006;21.964;2022-10-18T05:32:24;100042.88;;;13.81;70.72
57000;BME280;42891;50.006;21.964;2022-10-18T05:36:24;100052.53;;;13.83;70.79
57000;BME280;42891;50.006;21.964;2022-10-18T05:40:25;100054.19;;;13.84;70.83
57000;BME280;42891;50.006;21.964;2022-10-18T05:44:25;100050.50;;;13.96;70.54
57000;BME280;42891;50.006;21.964;2022-10-18T05:48:25;100054.69;;;13.98;70.76
57000;BME280;42891;50.006;21.964;2022-10-18T05:52:26;100043.63;;;13.93;70.20
57000;BME280;42891;50.006;21.964;2022-10-18T05:56:26;100063.00;;;14.05;70.25
57000;BME280;42891;50.006;21.964;2022-10-18T06:00:26;100063.72;;;14.17;69.87
57000;BME280;42891;50.006;21.964;2022-10-18T06:04:27;100064.59;;;14.18;70.28
57000;BME280;42891;50.006;21.964;2022-10-18T06:08:27;100050.53;;;14.06;69.79
57000;BME280;42891;50.006;21.964;2022-10-18T06:12:28;100064.75;;;14.26;69.60
57000;BME280;42891;50.006;21.964;2022-10-18T06:16:28;100070.63;;;14.29;69.11
57000;BME280;42891;50.006;21.964;2022-10-18T06:20:28;100076.25;;;14.36;69.57
57000;BME280;42891;50.006;21.964;2022-10-18T06:24:29;100073.91;;;14.43;68.99
57000;BME280;42891;50.006;21.964;2022-10-18T06:28:29;100085.16;;;14.56;69.08
57000;BME280;42891;50.006;21.964;2022-10-18T06:32:29;100083.06;;;14.60;68.22
57000;BME280;42891;50.006;21.964;2022-10-18T06:36:30;100082.81;;;14.63;69.29
57000;BME280;42891;50.006;21.964;2022-10-18T06:40:30;100074.72;;;14.64;68.73
57000;BME280;42891;50.006;21.964;2022-10-18T06:44:36;100096.56;;;14.78;69.06
57000;BME280;42891;50.006;21.964;2022-10-18T06:48:37;100096.59;;;14.88;68.21
57000;BME280;42891;50.006;21.964;2022-10-18T06:52:38;100099.25;;;14.97;68.42
57000;BME280;42891;50.006;21.964;2022-10-18T06:56:40;100089.31;;;14.90;67.60
57000;BME280;42891;50.006;21.964;2022-10-18T07:00:41;100088.63;;;14.97;67.79
57000;BME280;42891;50.006;21.964;2022-10-18T07:04:41;100087.22;;;15.13;67.79
57000;BME280;42891;50.006;21.964;2022-10-18T07:08:42;100094.81;;;15.08;66.76
57000;BME280;42891;50.006;21.964;2022-10-18T07:12:43;100075.09;;;15.20;67.03
57000;BME280;42891;50.006;21.964;2022-10-18T07:16:43;100070.03;;;15.17;66.88
57000;BME280;42891;50.006;21.964;2022-10-18T07:20:43;100075.63;;;15.43;66.25
57000;BME280;42891;50.006;21.964;2022-10-18T07:24:43;100053.94;;;15.38;66.26
57000;BME280;42891;50.006;21.964;2022-10-18T07:28:47;100080.09;;;15.62;65.60
57000;BME280;42891;50.006;21.964;2022-10-18T07:32:50;100061.34;;;15.54;66.12
57000;BME280;42891;50.006;21.964;2022-10-18T07:36:50;100065.97;;;15.62;65.62
57000;BME280;42891;50.006;21.964;2022-10-18T07:40:55;100052.06;;;15.68;65.45
57000;BME280;42891;50.006;21.964;2022-10-18T07:44:56;100074.44;;;15.95;65.74
57000;BME280;42891;50.006;21.964;2022-10-18T07:48:56;100070.81;;;15.96;64.89
57000;BME280;42891;50.006;21.964;2022-10-18T07:52:59;100067.81;;;16.09;64.63
57000;BME280;42891;50.006;21.964;2022-10-18T07:57:00;100065.88;;;16.11;63.68
57000;BME280;42891;50.006;21.964;2022-10-18T08:01:01;100058.13;;;16.17;63.60
57000;BME280;42891;50.006;21.964;2022-10-18T08:05:02;100047.44;;;16.27;63.82
57000;BME280;42891;50.006;21.964;2022-10-18T08:09:03;100056.91;;;16.40;63.60
57000;BME280;42891;50.006;21.964;2022-10-18T08:13:04;100060.91;;;16.53;63.45
57000;BME280;42891;50.006;21.964;2022-10-18T08:17:04;100047.94;;;16.59;62.56
57000;BME280;42891;50.006;21.964;2022-10-18T08:21:08;100053.47;;;16.75;62.67
57000;BME280;42891;50.006;21.964;2022-10-18T08:25:08;100046.84;;;16.79;62.82
57000;BME280;42891;50.006;21.964;2022-10-18T08:29:08;100042.47;;;16.88;61.21
57000;BME280;42891;50.006;21.964;2022-10-18T08:33:10;100044.69;;;16.93;60.51
57000;BME280;42891;50.006;21.964;2022-10-18T08:37:10;100030.88;;;16.97;60.69
57000;BME280;42891;50.006;21.964;2022-10-18T08:45:38;100042.25;;;17.17;59.95
57000;BME280;42891;50.006;21.964;2022-10-18T08:49:49;100038.47;;;17.20;59.08
57000;BME280;42891;50.006;21.964;2022-10-18T08:54:12;100026.69;;;17.31;58.90
57000;BME280;42891;50.006;21.964;2022-10-18T09:15:15;100000.66;;;17.77;57.66
57000;BME280;42891;50.006;21.964;2022-10-18T09:23:55;100002.13;;;17.98;57.23
57000;BME280;42891;50.006;21.964;2022-10-18T09:28:14;99993.25;;;17.97;55.60
57000;BME280;42891;50.006;21.964;2022-10-18T09:36:53;99979.84;;;18.23;55.42
57000;BME280;42891;50.006;21.964;2022-10-18T09:41:07;99960.66;;;18.28;55.48
57000;BME280;42891;50.006;21.964;2022-10-18T09:49:44;99954.88;;;18.57;55.43
57000;BME280;42891;50.006;21.964;2022-10-18T09:54:08;99946.69;;;18.59;54.88
57000;BME280;42891;50.006;21.964;2022-10-18T09:58:14;99942.00;;;18.61;54.42
57000;BME280;42891;50.006;21.964;2022-10-18T10:02:20;99942.00;;;18.61;53.64
57000;BME280;42891;50.006;21.964;2022-10-18T10:06:28;99916.09;;;18.62;54.05
57000;BME280;42891;50.006;21.964;2022-10-18T10:10:30;99926.31;;;18.83;54.03
57000;BME280;42891;50.006;21.964;2022-10-18T10:14:42;99913.13;;;18.98;54.78
57000;BME280;42891;50.006;21.964;2022-10-18T10:18:42;99900.25;;;18.93;53.71
57000;BME280;42891;50.006;21.964;2022-10-18T10:22:44;99897.88;;;19.15;54.20
57000;BME280;42891;50.006;21.964;2022-10-18T10:26:46;99880.31;;;19.20;53.20
57000;BME280;42891;50.006;21.964;2022-10-18T10:30:46;99869.63;;;19.12;52.52
57000;BME280;42891;50.006;21.964;2022-10-18T10:34:47;99861.38;;;19.30;52.44
57000;BME280;42891;50.006;21.964;2022-10-18T10:39:10;99859.03;;;19.35;51.75
57000;BME280;42891;50.006;21.964;2022-10-18T10:43:15;99858.66;;;19.47;51.60
57000;BME280;42891;50.006;21.964;2022-10-18T10:47:35;99856.97;;;19.46;51.47
57000;BME280;42891;50.006;21.964;2022-10-18T10:51:37;99853.09;;;19.56;51.26
57000;BME280;42891;50.006;21.964;2022-10-18T10:55:38;99840.81;;;19.70;51.34
57000;BME280;42891;50.006;21.964;2022-10-18T10:59:47;99829.47;;;19.60;50.45
57000;BME280;42891;50.006;21.964;2022-10-18T11:03:50;99826.88;;;19.75;49.92
57000;BME280;42891;50.006;21.964;2022-10-18T11:07:54;99825.31;;;19.89;50.00
57000;BME280;42891;50.006;21.964;2022-10-18T11:12:02;99815.75;;;20.18;50.08
57000;BME280;42891;50.006;21.964;2022-10-18T11:16:31;99810.19;;;19.96;48.75
57000;BME280;42891;50.006;21.964;2022-10-18T11:20:39;99804.81;;;20.27;49.28
57000;BME280;42891;50.006;21.964;2022-10-18T11:24:40;99797.13;;;20.48;49.34
57000;BME280;42891;50.006;21.964;2022-10-18T11:32:58;99800.53;;;21.69;45.80
57000;BME280;42891;50.006;21.964;2022-10-18T11:41:38;99785.88;;;24.52;39.09
57000;BME280;42891;50.006;21.964;2022-10-18T11:50:17;99763.09;;;25.79;35.78
57000;BME280;42891;50.006;21.964;2022-10-18T12:03:41;99760.22;;;28.16;32.28
57000;BME280;42891;50.006;21.964;2022-10-18T12:07:55;99754.41;;;28.01;32.42
57000;BME280;42891;50.006;21.964;2022-10-18T12:12:05;99751.97;;;28.23;31.83
57000;BME280;42891;50.006;21.964;2022-10-18T12:16:07;99737.63;;;27.92;33.09
57000;BME280;42891;50.006;21.964;2022-10-18T12:20:30;99735.69;;;28.23;31.99
57000;BME280;42891;50.006;21.964;2022-10-18T12:24:32;99718.13;;;28.85;31.01
57000;BME280;42891;50.006;21.964;2022-10-18T12:32:35;99709.78;;;30.02;28.76
57000;BME280;42891;50.006;21.964;2022-10-18T12:36:54;99714.72;;;30.39;28.42
57000;BME280;42891;50.006;21.964;2022-10-18T12:40:58;99708.09;;;29.26;28.66
57000;BME280;42891;50.006;21.964;2022-10-18T12:49:33;99705.00;;;29.63;29.11
57000;BME280;42891;50.006;21.964;2022-10-18T12:53:34;99693.44;;;29.85;28.68
57000;BME280;42891;50.006;21.964;2022-10-18T13:14:18;99675.94;;;29.52;28.18
57000;BME280;42891;50.006;21.964;2022-10-18T13:18:25;99656.13;;;28.70;29.11
57000;BME280;42891;50.006;21.964;2022-10-18T13:23:28;99661.34;;;29.87;28.30
57000;BME280;42891;50.006;21.964;2022-10-18T13:31:47;99649.75;;;30.48;27.34
57000;BME280;42891;50.006;21.964;2022-10-18T13:35:56;99651.72;;;30.52;27.24
57000;BME280;42891;50.006;21.964;2022-10-18T13:40:23;99651.88;;;31.07;26.85
57000;BME280;42891;50.006;21.964;2022-10-18T13:57:28;99620.97;;;28.80;29.18
57000;BME280;42891;50.006;21.964;2022-10-18T14:09:57;99595.81;;;27.12;31.91
57000;BME280;42891;50.006;21.964;2022-10-18T14:18:18;99587.03;;;26.06;34.21
57000;BME280;42891;50.006;21.964;2022-10-18T14:22:25;99591.06;;;25.96;35.14
57000;BME280;42891;50.006;21.964;2022-10-18T14:26:28;99588.16;;;25.98;35.08
57000;BME280;42891;50.006;21.964;2022-10-18T14:30:28;99574.06;;;25.39;35.96
57000;BME280;42891;50.006;21.964;2022-10-18T14:34:29;99568.09;;;24.91;37.28
57000;BME280;42891;50.006;21.964;2022-10-18T14:38:29;99570.91;;;24.58;38.16
57000;BME280;42891;50.006;21.964;2022-10-18T14:42:30;99569.50;;;24.48;38.25
57000;BME280;42891;50.006;21.964;2022-10-18T14:46:30;99564.97;;;24.29;38.66
57000;BME280;42891;50.006;21.964;2022-10-18T14:50:33;99544.84;;;24.38;38.73
57000;BME280;42891;50.006;21.964;2022-10-18T14:54:37;99526.66;;;23.87;39.85
57000;BME280;42891;50.006;21.964;2022-10-18T14:58:40;99536.63;;;23.46;40.76
57000;BME280;42891;50.006;21.964;2022-10-18T15:02:40;99520.06;;;23.49;41.01
57000;BME280;42891;50.006;21.964;2022-10-18T15:06:42;99526.88;;;23.72;40.81
57000;BME280;42891;50.006;21.964;2022-10-18T15:10:43;99503.28;;;23.27;41.30
57000;BME280;42891;50.006;21.964;2022-10-18T15:14:44;99504.31;;;23.32;41.54
57000;BME280;42891;50.006;21.964;2022-10-18T15:23:26;99501.72;;;22.77;42.57
57000;BME280;42891;50.006;21.964;2022-10-18T15:27:35;99474.56;;;22.17;43.24
57000;BME280;42891;50.006;21.964;2022-10-18T15:31:39;99492.25;;;21.98;43.79
57000;BME280;42891;50.006;21.964;2022-10-18T15:35:41;99478.25;;;21.74;44.75
57000;BME280;42891;50.006;21.964;2022-10-18T15:39:42;99488.09;;;21.60;44.90
57000;BME280;42891;50.006;21.964;2022-10-18T15:43:42;99474.59;;;21.54;45.29
57000;BME280;42891;50.006;21.964;2022-10-18T16:00:18;99466.22;;;20.55;48.39
57000;BME280;42891;50.006;21.964;2022-10-18T16:04:25;99448.53;;;20.61;47.96
57000;BME280;42891;50.006;21.964;2022-10-18T16:08:27;99459.81;;;20.71;48.47
57000;BME280;42891;50.006;21.964;2022-10-18T16:12:30;99455.72;;;20.39;49.18
57000;BME280;42891;50.006;21.964;2022-10-18T16:16:30;99464.25;;;20.27;49.35
57000;BME280;42891;50.006;21.964;2022-10-18T16:20:30;99451.91;;;19.97;50.10
57000;BME280;42891;50.006;21.964;2022-10-18T16:24:31;99462.22;;;19.70;50.67
57000;BME280;42891;50.006;21.964;2022-10-18T16:28:31;99467.59;;;19.32;52.06
57000;BME280;42891;50.006;21.964;2022-10-18T16:32:31;99460.44;;;19.47;51.85
57000;BME280;42891;50.006;21.964;2022-10-18T16:36:32;99471.06;;;19.55;51.87
57000;BME280;42891;50.006;21.964;2022-10-18T16:40:34;99469.41;;;19.16;52.93
57000;BME280;42891;50.006;21.964;2022-10-18T16:44:34;99475.91;;;18.99;53.86
57000;BME280;42891;50.006;21.964;2022-10-18T16:48:34;99464.38;;;18.98;53.78
57000;BME280;42891;50.006;21.964;2022-10-18T16:52:35;99473.59;;;18.64;54.43
57000;BME280;42891;50.006;21.964;2022-10-18T16:56:35;99451.63;;;18.77;54.15
57000;BME280;42891;50.006;21.964;2022-10-18T17:00:35;99480.31;;;18.83;54.24
57000;BME280;42891;50.006;21.964;2022-10-18T17:04:35;99482.41;;;18.73;55.15
57000;BME280;42891;50.006;21.964;2022-10-18T17:08:36;99487.69;;;18.89;54.19
57000;BME280;42891;50.006;21.964;2022-10-18T17:12:36;99493.00;;;18.98;55.17
57000;BME280;42891;50.006;21.964;2022-10-18T17:16:36;99492.31;;;18.96;54.23
57000;BME280;42891;50.006;21.964;2022-10-18T17:20:37;99493.19;;;19.11;54.12
57000;BME280;42891;50.006;21.964;2022-10-18T17:24:38;99478.34;;;19.08;53.87
57000;BME280;42891;50.006;21.964;2022-10-18T17:28:38;99474.53;;;19.03;54.73
57000;BME280;42891;50.006;21.964;2022-10-18T17:32:39;99473.72;;;19.02;54.49
57000;BME280;42891;50.006;21.964;2022-10-18T17:36:43;99461.75;;;18.90;54.97
57000;BME280;42891;50.006;21.964;2022-10-18T17:40:43;99473.72;;;18.71;55.16
57000;BME280;42891;50.006;21.964;2022-10-18T17:44:44;99466.06;;;18.68;55.28
57000;BME280;42891;50.006;21.964;2022-10-18T17:48:45;99468.72;;;18.68;55.15
57000;BME280;42891;50.006;21.964;2022-10-18T17:52:46;99460.81;;;18.51;55.54
57000;BME280;42891;50.006;21.964;2022-10-18T17:56:47;99464.84;;;18.47;55.64
57000;BME280;42891;50.006;21.964;2022-10-18T18:00:47;99467.38;;;18.09;56.84
57000;BME280;42891;50.006;21.964;2022-10-18T18:04:47;99466.41;;;17.85;57.49
57000;BME280;42891;50.006;21.964;2022-10-18T18:08:48;99465.34;;;18.11;57.13
57000;BME280;42891;50.006;21.964;2022-10-18T18:12:49;99467.06;;;17.87;57.47
57000;BME280;42891;50.006;21.964;2022-10-18T18:16:49;99468.72;;;18.05;57.65
57000;BME280;42891;50.006;21.964;2022-10-18T18:20:50;99464.41;;;17.96;57.65
57000;BME280;42891;50.006;21.964;2022-10-18T18:24:51;99448.19;;;17.89;57.66
57000;BME280;42891;50.006;21.964;2022-10-18T18:28:51;99463.22;;;17.90;57.95
57000;BME280;42891;50.006;21.964;2022-10-18T18:32:52;99466.25;;;17.87;57.76
57000;BME280;42891;50.006;21.964;2022-10-18T18:36:52;99439.06;;;17.75;58.22
57000;BME280;42891;50.006;21.964;2022-10-18T18:45:05;99436.44;;;17.50;59.80
57000;BME280;42891;50.006;21.964;2022-10-18T18:49:06;99440.28;;;17.56;59.70
57000;BME280;42891;50.006;21.964;2022-10-18T18:53:07;99434.13;;;17.31;59.64
57000;BME280;42891;50.006;21.964;2022-10-18T18:57:08;99433.13;;;17.40;59.77
57000;BME280;42891;50.006;21.964;2022-10-18T19:01:29;99443.47;;;17.35;60.17
57000;BME280;42891;50.006;21.964;2022-10-18T19:05:29;99436.50;;;17.09;60.71
57000;BME280;42891;50.006;21.964;2022-10-18T19:09:31;99439.66;;;16.80;61.82
57000;BME280;42891;50.006;21.964;2022-10-18T19:13:32;99421.91;;;16.46;62.61
57000;BME280;42891;50.006;21.964;2022-10-18T19:17:32;99438.44;;;16.58;62.46
57000;BME280;42891;50.006;21.964;2022-10-18T19:21:37;99453.63;;;16.74;62.71
57000;BME280;42891;50.006;21.964;2022-10-18T19:25:37;99439.94;;;16.52;63.23
57000;BME280;42891;50.006;21.964;2022-10-18T19:29:39;99439.09;;;16.51;62.99
57000;BME280;42891;50.006;21.964;2022-10-18T19:33:40;99458.94;;;16.65;62.96
57000;BME280;42891;50.006;21.964;2022-10-18T19:37:40;99440.25;;;16.49;63.74
57000;BME280;42891;50.006;21.964;2022-10-18T19:41:40;99457.22;;;16.40;64.38
57000;BME280;42891;50.006;21.964;2022-10-18T19:45:41;99449.63;;;16.69;63.46
57000;BME280;42891;50.006;21.964;2022-10-18T19:49:41;99438.00;;;16.19;64.49
57000;BME280;42891;50.006;21.964;2022-10-18T19:53:42;99456.88;;;16.34;64.81
57000;BME280;42891;50.006;21.964;2022-10-18T19:57:42;99458.31;;;16.21;64.98
57000;BME280;42891;50.006;21.964;2022-10-18T20:01:43;99456.56;;;16.46;64.50
57000;BME280;42891;50.006;21.964;2022-10-18T20:05:43;99446.31;;;16.16;64.97
57000;BME280;42891;50.006;21.964;2022-10-18T20:09:44;99444.91;;;16.39;64.92
57000;BME280;42891;50.006;21.964;2022-10-18T20:13:46;99458.38;;;16.37;64.58
57000;BME280;42891;50.006;21.964;2022-10-18T20:17:46;99455.09;;;16.51;64.21
57000;BME280;42891;50.006;21.964;2022-10-18T20:21:47;99450.13;;;16.65;63.67
57000;BME280;42891;50.006;21.964;2022-10-18T20:26:04;99438.75;;;16.46;64.16
57000;BME280;42891;50.006;21.964;2022-10-18T20:30:05;99447.75;;;16.45;64.54
57000;BME280;42891;50.006;21.964;2022-10-18T20:34:08;99443.38;;;16.36;64.77
57000;BME280;42891;50.006;21.964;2022-10-18T20:38:09;99454.22;;;16.34;65.16
57000;BME280;42891;50.006;21.964;2022-10-18T20:42:09;99454.22;;;16.34;65.24
57000;BME280;42891;50.006;21.964;2022-10-18T20:46:10;99434.56;;;16.35;65.15
57000;BME280;42891;50.006;21.964;2022-10-18T20:50:10;99439.88;;;16.27;65.50
57000;BME280;42891;50.006;21.964;2022-10-18T20:54:11;99432.03;;;16.26;65.36
57000;BME280;42891;50.006;21.964;2022-10-18T20:58:11;99438.19;;;16.26;65.47
57000;BME280;42891;50.006;21.964;2022-10-18T21:02:11;99435.72;;;16.33;65.20
57000;BME280;42891;50.006;21.964;2022-10-18T21:06:14;99451.06;;;16.39;65.21
57000;BME280;42891;50.006;21.964;2022-10-18T21:10:15;99438.03;;;16.28;65.85
57000;BME280;42891;50.006;21.964;2022-10-18T21:14:17;99447.53;;;16.30;67.33
57000;BME280;42891;50.006;21.964;2022-10-18T21:18:18;99440.53;;;16.29;67.47
57000;BME280;42891;50.006;21.964;2022-10-18T21:22:18;99440.50;;;16.21;68.01
57000;BME280;42891;50.006;21.964;2022-10-18T21:26:24;99426.22;;;16.30;67.66
57000;BME280;42891;50.006;21.964;2022-10-18T21:30:24;99430.03;;;16.28;67.80
57000;BME280;42891;50.006;21.964;2022-10-18T21:34:25;99429.06;;;16.29;68.27
57000;BME280;42891;50.006;21.964;2022-10-18T21:38:25;99428.00;;;16.13;68.31
57000;BME280;42891;50.006;21.964;2022-10-18T21:42:25;99439.94;;;16.52;67.75
57000;BME280;42891;50.006;21.964;2022-10-18T21:46:26;99443.63;;;16.67;67.89
57000;BME280;42891;50.006;21.964;2022-10-18T21:50:26;99445.22;;;16.35;67.97
57000;BME280;42891;50.006;21.964;2022-10-18T21:54:26;99420.56;;;16.42;67.73
57000;BME280;42891;50.006;21.964;2022-10-18T21:58:27;99445.75;;;16.56;67.82
57000;BME280;42891;50.006;21.964;2022-10-18T22:02:27;99441.41;;;16.54;67.52
57000;BME280;42891;50.006;21.964;2022-10-18T22:06:28;99453.72;;;16.47;66.95
57000;BME280;42891;50.006;21.964;2022-10-18T22:10:31;99451.78;;;16.58;66.55
57000;BME280;42891;50.006;21.964;2022-10-18T22:14:32;99451.41;;;16.44;67.91
57000;BME280;42891;50.006;21.964;2022-10-18T22:18:33;99472.06;;;16.42;70.71
57000;BME280;42891;50.006;21.964;2022-10-18T22:22:33;99471.16;;;16.25;72.78
57000;BME280;42891;50.006;21.964;2022-10-18T22:26:37;99482.84;;;16.24;73.54
57000;BME280;42891;50.006;21.964;2022-10-18T22:30:37;99484.59;;;16.15;74.35
57000;BME280;42891;50.006;21.964;2022-10-18T22:34:38;99498.31;;;16.29;74.54
57000;BME280;42891;50.006;21.964;2022-10-18T22:38:38;99505.28;;;16.22;75.21
57000;BME280;42891;50.006;21.964;2022-10-18T22:42:39;99495.91;;;16.09;78.36
57000;BME280;42891;50.006;21.964;2022-10-18T22:46:40;99505.25;;;16.13;78.89
57000;BME280;42891;50.006;21.964;2022-10-18T22:50:41;99499.69;;;15.98;78.36
57000;BME280;42891;50.006;21.964;2022-10-18T22:54:41;99497.06;;;16.07;77.99
57000;BME280;42891;50.006;21.964;2022-10-18T22:58:41;99501.19;;;16.01;78.39
57000;BME280;42891;50.006;21.964;2022-10-18T23:02:42;99491.06;;;15.78;79.12
57000;BME280;42891;50.006;21.964;2022-10-18T23:06:42;99532.41;;;15.91;80.25
57000;BME280;42891;50.006;21.964;2022-10-18T23:10:42;99545.06;;;15.89;81.34
57000;BME280;42891;50.006;21.964;2022-10-18T23:14:42;99539.41;;;15.47;83.99
57000;BME280;42891;50.006;21.964;2022-10-18T23:18:48;99557.81;;;15.41;85.13
57000;BME280;42891;50.006;21.964;2022-10-18T23:22:48;99560.78;;;15.56;84.16
57000;BME280;42891;50.006;21.964;2022-10-18T23:26:48;99556.72;;;15.69;83.14
57000;BME280;42891;50.006;21.964;2022-10-18T23:30:48;99549.09;;;15.75;82.49
57000;BME280;42891;50.006;21.964;2022-10-18T23:34:49;99546.44;;;15.75;82.27